Time;durP1;ratioP1;P1;durP2;ratioP2;P2;SDS_P1;SDS_P2;PMS_P1;PMS_P2;Temp;Humidity;BMP_temperature;BMP_pressure;BME280_temperature;BME280_humidity;BME280_pressure;Samples;Min_cycle;Max_cycle;Signal;HPM_P1;HPM_P2
2024/01/06 00:01:56;;;;;;;13.27;7.03;;;;;;;;;;5016657;28;20045;-77
2024/01/06 00:04:22;;;;;;;14.40;7.90;;;;;;;;;;5000723;28;20034;-77
2024/01/06 00:06:47;;;;;;;13.75;6.47;;;;;;;;;;5024000;28;20033;-77
2024/01/06 00:09:12;;;;;;;13.30;6.68;;;;;;;;;;5020188;28;20045;-77
2024/01/06 00:11:37;;;;;;;15.82;7.25;;;;;;;;;;5017486;28;20037;-76
2024/01/06 00:14:02;;;;;;;13.05;6.72;;;;;;;;;;5015755;28;20034;-77
2024/01/06 00:16:28;;;;;;;13.13;6.57;;;;;;;;;;5016881;28;20034;-77
2024/01/06 00:18:53;;;;;;;12.00;5.63;;;;;;;;;;5020923;28;20087;-77
2024/01/06 00:21:18;;;;;;;10.63;5.60;;;;;;;;;;5018939;28;20430;-77
2024/01/06 00:23:43;;;;;;;10.15;5.05;;;;;;;;;;5018848;28;20068;-77
2024/01/06 00:26:12;;;;;;;12.98;5.90;;;;;;;;;;5016630;28;20118;-76
2024/01/06 00:28:37;;;;;;;12.52;6.72;;;;;;;;;;5015763;28;20438;-77
2024/01/06 00:31:02;;;;;;;11.10;5.30;;;;;;;;;;5018680;28;20041;-77
2024/01/06 00:33:28;;;;;;;13.80;6.45;;;;;;;;;;5017104;28;20066;-77
2024/01/06 00:35:55;;;;;;;11.07;5.95;;;;;;;;;;5020990;28;20029;-77
2024/01/06 00:38:20;;;;;;;13.48;5.50;;;;;;;;;;5020167;28;20037;-77
2024/01/06 00:40:45;;;;;;;9.18;5.28;;;;;;;;;;5017401;28;20037;-77
2024/01/06 00:43:10;;;;;;;11.85;5.55;;;;;;;;;;5016049;28;20084;-76
2024/01/06 00:45:35;;;;;;;10.93;5.88;;;;;;;;;;5020317;28;20046;-79
2024/01/06 00:48:01;;;;;;;13.23;7.10;;;;;;;;;;5020195;28;20033;-80
2024/01/06 00:50:26;;;;;;;13.77;6.22;;;;;;;;;;5000299;28;20061;-79
2024/01/06 00:52:52;;;;;;;15.48;7.80;;;;;;;;;;5016605;28;20034;-80
2024/01/06 00:55:18;;;;;;;13.90;7.25;;;;;;;;;;5015671;28;20087;-79
2024/01/06 00:57:43;;;;;;;13.77;6.90;;;;;;;;;;5005886;28;20033;-80
2024/01/06 01:00:09;;;;;;;12.05;6.55;;;;;;;;;;5021030;28;20375;-79
2024/01/06 01:02:34;;;;;;;10.77;5.60;;;;;;;;;;5018740;28;20117;-80
2024/01/06 01:04:59;;;;;;;10.45;5.72;;;;;;;;;;5023666;28;20033;-80
2024/01/06 01:07:24;;;;;;;11.90;5.75;;;;;;;;;;4997577;28;20048;-79
2024/01/06 01:09:50;;;;;;;11.55;5.68;;;;;;;;;;5017838;28;20036;-79
2024/01/06 01:12:15;;;;;;;14.18;8.35;;;;;;;;;;5000451;28;20405;-79
2024/01/06 01:14:40;;;;;;;17.38;8.50;;;;;;;;;;5018298;28;20049;-79
2024/01/06 01:17:05;;;;;;;34.42;8.75;;;;;;;;;;5024980;28;20398;-79
2024/01/06 01:19:31;;;;;;;11.88;6.32;;;;;;;;;;5020491;28;20482;-79
2024/01/06 01:21:56;;;;;;;14.85;6.97;;;;;;;;;;5017670;28;20030;-79
2024/01/06 01:24:22;;;;;;;9.93;5.60;;;;;;;;;;4998560;28;20096;-79
2024/01/06 01:26:47;;;;;;;11.68;5.97;;;;;;;;;;5020648;28;20043;-79
2024/01/06 01:29:12;;;;;;;13.63;6.35;;;;;;;;;;5018208;28;20042;-80
2024/01/06 01:31:37;;;;;;;12.20;5.63;;;;;;;;;;5019500;28;20065;-80
2024/01/06 01:34:02;;;;;;;11.30;6.10;;;;;;;;;;5024425;28;20064;-80
2024/01/06 01:36:28;;;;;;;10.18;5.20;;;;;;;;;;5014373;28;20105;-80
2024/01/06 01:38:53;;;;;;;10.77;5.15;;;;;;;;;;5021969;28;20436;-79
2024/01/06 01:41:18;;;;;;;11.25;5.30;;;;;;;;;;5018645;28;20033;-79
2024/01/06 01:43:45;;;;;;;15.57;4.90;;;;;;;;;;5011762;28;20502;-79
2024/01/06 01:46:10;;;;;;;12.80;6.40;;;;;;;;;;5022310;28;20061;-79
2024/01/06 01:48:35;;;;;;;11.32;5.55;;;;;;;;;;5016936;28;20045;-80
2024/01/06 01:51:01;;;;;;;8.23;4.15;;;;;;;;;;5017086;28;20049;-79
2024/01/06 01:53:26;;;;;;;11.38;4.88;;;;;;;;;;5016138;28;20037;-79
2024/01/06 01:55:52;;;;;;;10.00;5.47;;;;;;;;;;4999989;28;20491;-80
2024/01/06 01:58:17;;;;;;;10.93;5.93;;;;;;;;;;5021191;28;20041;-80
2024/01/06 02:00:42;;;;;;;9.77;4.85;;;;;;;;;;5020567;28;20057;-79
2024/01/06 02:03:09;;;;;;;9.52;4.95;;;;;;;;;;5019682;28;20050;-79
2024/01/06 02:05:34;;;;;;;9.98;5.53;;;;;;;;;;5017347;28;20463;-79
2024/01/06 02:07:59;;;;;;;11.73;6.13;;;;;;;;;;5019459;28;20097;-80
2024/01/06 02:10:25;;;;;;;11.48;6.18;;;;;;;;;;5018465;28;20033;-80
2024/01/06 02:12:51;;;;;;;7.85;4.03;;;;;;;;;;5018534;28;20061;-80
2024/01/06 02:15:17;;;;;;;11.27;5.57;;;;;;;;;;5019952;28;20025;-80
2024/01/06 02:17:42;;;;;;;11.73;5.50;;;;;;;;;;5013304;28;20049;-79
2024/01/06 02:20:08;;;;;;;9.30;5.00;;;;;;;;;;5022533;28;20025;-79
2024/01/06 02:22:35;;;;;;;13.85;5.40;;;;;;;;;;5017648;28;20490;-80
2024/01/06 02:25:01;;;;;;;10.80;6.05;;;;;;;;;;5019774;28;20104;-78
2024/01/06 02:27:26;;;;;;;11.68;5.78;;;;;;;;;;5002218;28;20037;-79
2024/01/06 02:29:51;;;;;;;15.98;7.75;;;;;;;;;;5020365;28;20029;-79
2024/01/06 02:32:16;;;;;;;16.48;7.40;;;;;;;;;;5013159;28;20041;-78
2024/01/06 02:34:41;;;;;;;14.35;7.35;;;;;;;;;;5014746;28;20029;-79
2024/01/06 02:37:07;;;;;;;13.20;6.22;;;;;;;;;;5000979;28;20517;-79
2024/01/06 02:39:32;;;;;;;11.90;6.60;;;;;;;;;;5018282;28;20040;-79
2024/01/06 02:41:57;;;;;;;9.10;4.80;;;;;;;;;;5021130;28;20022;-80
2024/01/06 02:44:22;;;;;;;11.98;5.55;;;;;;;;;;5015900;28;20038;-79
2024/01/06 02:46:47;;;;;;;13.23;6.18;;;;;;;;;;5017063;28;20034;-80
2024/01/06 02:49:13;;;;;;;11.93;5.40;;;;;;;;;;4997848;28;20173;-80
2024/01/06 02:51:38;;;;;;;9.43;5.45;;;;;;;;;;5015250;28;20140;-79
2024/01/06 02:54:04;;;;;;;11.80;6.57;;;;;;;;;;5018507;28;20038;-80
2024/01/06 02:56:29;;;;;;;25.63;16.52;;;;;;;;;;4986568;28;20037;-80
2024/01/06 02:58:54;;;;;;;28.95;16.02;;;;;;;;;;5022728;28;20084;-79
2024/01/06 03:01:20;;;;;;;22.42;13.68;;;;;;;;;;5022392;28;20120;-79
2024/01/06 03:03:45;;;;;;;14.18;7.80;;;;;;;;;;5018944;28;20413;-79
2024/01/06 03:06:10;;;;;;;12.07;6.93;;;;;;;;;;5005219;28;20148;-80
2024/01/06 03:08:35;;;;;;;11.27;5.70;;;;;;;;;;5020460;28;20037;-79
2024/01/06 03:11:02;;;;;;;12.60;5.22;;;;;;;;;;5023936;28;20038;-79
2024/01/06 03:13:28;;;;;;;9.27;4.70;;;;;;;;;;5016691;28;20052;-79
2024/01/06 03:15:53;;;;;;;14.38;6.47;;;;;;;;;;5018234;28;20105;-80
2024/01/06 03:18:18;;;;;;;10.30;5.40;;;;;;;;;;5020589;28;20034;-80
2024/01/06 03:20:44;;;;;;;10.20;5.05;;;;;;;;;;5022622;28;20037;-80
2024/01/06 03:23:09;;;;;;;12.07;6.05;;;;;;;;;;4989128;28;20034;-80
2024/01/06 03:25:34;;;;;;;11.00;6.82;;;;;;;;;;5013724;28;20216;-80
2024/01/06 03:27:59;;;;;;;14.80;6.93;;;;;;;;;;5020019;28;20045;-79
2024/01/06 03:30:24;;;;;;;13.52;5.25;;;;;;;;;;5019020;28;20402;-80
2024/01/06 03:32:50;;;;;;;13.15;5.13;;;;;;;;;;5021074;28;20036;-80
2024/01/06 03:35:15;;;;;;;12.68;5.90;;;;;;;;;;5018704;28;20112;-80
2024/01/06 03:37:40;;;;;;;9.45;4.70;;;;;;;;;;5022436;28;20022;-80
2024/01/06 03:40:06;;;;;;;13.65;6.68;;;;;;;;;;5026805;28;20519;-80
2024/01/06 03:42:32;;;;;;;9.63;4.80;;;;;;;;;;5016619;28;20034;-80
2024/01/06 03:44:57;;;;;;;13.38;5.93;;;;;;;;;;5000865;28;20034;-80
2024/01/06 03:47:22;;;;;;;8.13;4.28;;;;;;;;;;5021094;28;20569;-79
2024/01/06 03:49:48;;;;;;;10.57;5.07;;;;;;;;;;5003400;28;20124;-79
2024/01/06 03:52:13;;;;;;;11.45;4.95;;;;;;;;;;5022208;28;20108;-80
2024/01/06 03:54:39;;;;;;;10.60;5.13;;;;;;;;;;5006109;28;20073;-80
2024/01/06 03:57:04;;;;;;;10.88;5.50;;;;;;;;;;5006102;28;20029;-79
2024/01/06 03:59:29;;;;;;;10.07;5.40;;;;;;;;;;5019113;28;20040;-78
2024/01/06 04:01:54;;;;;;;10.05;5.32;;;;;;;;;;5023069;28;20091;-78
2024/01/06 04:04:20;;;;;;;15.02;6.05;;;;;;;;;;5023919;28;20089;-78
2024/01/06 04:06:45;;;;;;;11.85;5.00;;;;;;;;;;5025271;28;20105;-78
2024/01/06 04:09:10;;;;;;;9.98;5.22;;;;;;;;;;5019569;28;20029;-79
2024/01/06 04:11:35;;;;;;;12.25;5.45;;;;;;;;;;5018596;28;20475;-78
2024/01/06 04:14:01;;;;;;;14.02;7.38;;;;;;;;;;5020425;28;20025;-78
2024/01/06 04:16:27;;;;;;;15.75;8.52;;;;;;;;;;5021486;28;20031;-78
2024/01/06 04:18:52;;;;;;;10.73;6.88;;;;;;;;;;5006003;28;20036;-78
2024/01/06 04:21:17;;;;;;;16.10;7.30;;;;;;;;;;5008475;28;20033;-78
2024/01/06 04:23:43;;;;;;;10.20;6.25;;;;;;;;;;4997043;28;20037;-78
2024/01/06 04:26:08;;;;;;;11.43;5.75;;;;;;;;;;5021467;28;20026;-78
2024/01/06 04:28:33;;;;;;;9.52;5.13;;;;;;;;;;5019840;28;20033;-78
2024/01/06 04:30:58;;;;;;;12.80;6.10;;;;;;;;;;5023110;28;20562;-78
2024/01/06 04:33:24;;;;;;;11.57;6.55;;;;;;;;;;5023976;28;20014;-78
2024/01/06 04:35:50;;;;;;;11.73;6.47;;;;;;;;;;5024041;28;20483;-78
2024/01/06 04:38:15;;;;;;;12.95;5.95;;;;;;;;;;5017773;28;20510;-79
2024/01/06 04:40:40;;;;;;;11.30;6.60;;;;;;;;;;5019366;28;20025;-78
2024/01/06 04:43:05;;;;;;;11.60;6.10;;;;;;;;;;5022135;28;20025;-78
2024/01/06 04:45:31;;;;;;;10.38;5.88;;;;;;;;;;5021739;28;20033;-78
2024/01/06 04:47:56;;;;;;;7.40;4.20;;;;;;;;;;5018514;28;20082;-78
2024/01/06 04:50:21;;;;;;;10.75;5.32;;;;;;;;;;5017524;28;20036;-79
2024/01/06 04:52:46;;;;;;;8.98;4.88;;;;;;;;;;5017182;28;20034;-78
2024/01/06 04:55:12;;;;;;;14.45;7.28;;;;;;;;;;5001711;28;20029;-79
2024/01/06 04:57:37;;;;;;;13.60;6.28;;;;;;;;;;5020077;28;20030;-78
2024/01/06 05:00:03;;;;;;;12.27;5.93;;;;;;;;;;5004335;28;20108;-78
2024/01/06 05:02:28;;;;;;;11.07;5.45;;;;;;;;;;5022813;28;20502;-78
2024/01/06 05:04:54;;;;;;;11.13;5.80;;;;;;;;;;5018590;28;20029;-79
2024/01/06 05:07:19;;;;;;;13.85;6.40;;;;;;;;;;5019007;28;20052;-78
2024/01/06 05:09:44;;;;;;;10.63;4.68;;;;;;;;;;5018738;28;20049;-78
2024/01/06 05:12:09;;;;;;;10.90;4.88;;;;;;;;;;5022912;28;20037;-76
2024/01/06 05:14:35;;;;;;;15.45;6.15;;;;;;;;;;5021698;28;20121;-78
2024/01/06 05:17:00;;;;;;;10.60;5.22;;;;;;;;;;5023022;28;20025;-78
2024/01/06 05:19:25;;;;;;;10.45;5.10;;;;;;;;;;5016055;28;20029;-78
2024/01/06 05:21:50;;;;;;;11.95;6.25;;;;;;;;;;5015557;28;20113;-78
2024/01/06 05:24:16;;;;;;;12.77;5.55;;;;;;;;;;5000214;28;20494;-79
2024/01/06 05:26:41;;;;;;;13.02;6.32;;;;;;;;;;5020800;28;20037;-78
2024/01/06 05:29:06;;;;;;;11.93;5.90;;;;;;;;;;5021435;28;20080;-79
2024/01/06 05:31:31;;;;;;;10.57;5.18;;;;;;;;;;5018789;28;20034;-78
2024/01/06 05:33:56;;;;;;;10.27;5.50;;;;;;;;;;5015757;28;20390;-77
2024/01/06 05:36:22;;;;;;;10.05;5.25;;;;;;;;;;5019166;28;20482;-78
2024/01/06 05:38:47;;;;;;;11.27;5.72;;;;;;;;;;5018906;28;20026;-78
2024/01/06 05:41:12;;;;;;;9.80;4.97;;;;;;;;;;5023409;28;20029;-78
2024/01/06 05:43:38;;;;;;;10.45;5.40;;;;;;;;;;5020015;28;20022;-78
2024/01/06 05:46:03;;;;;;;12.10;5.60;;;;;;;;;;5018816;28;20096;-79
2024/01/06 05:48:29;;;;;;;11.25;5.45;;;;;;;;;;5016702;28;20502;-78
2024/01/06 05:50:54;;;;;;;12.05;5.40;;;;;;;;;;5019328;28;20073;-78
2024/01/06 05:53:19;;;;;;;10.38;4.80;;;;;;;;;;5004688;28;20097;-78
2024/01/06 05:55:44;;;;;;;11.77;5.75;;;;;;;;;;5021247;28;20030;-78
2024/01/06 05:58:09;;;;;;;16.20;6.93;;;;;;;;;;5011532;28;20028;-78
2024/01/06 06:00:35;;;;;;;10.65;6.03;;;;;;;;;;4999224;28;20042;-78
2024/01/06 06:03:00;;;;;;;9.85;5.10;;;;;;;;;;5023105;28;20041;-78
2024/01/06 06:05:26;;;;;;;12.35;5.65;;;;;;;;;;5022163;28;20041;-78
2024/01/06 06:07:51;;;;;;;11.98;5.78;;;;;;;;;;5024061;28;20032;-78
2024/01/06 06:10:18;;;;;;;13.32;5.90;;;;;;;;;;5001945;28;20498;-78
2024/01/06 06:12:44;;;;;;;10.35;5.43;;;;;;;;;;4987890;28;20044;-78
2024/01/06 06:15:09;;;;;;;8.93;4.68;;;;;;;;;;5022970;28;20025;-77
2024/01/06 06:17:35;;;;;;;9.98;6.13;;;;;;;;;;5003877;28;20080;-78
2024/01/06 06:20:00;;;;;;;10.48;5.85;;;;;;;;;;5007589;28;20040;-78
2024/01/06 06:22:32;;;;;;;11.77;5.95;;;;;;;;;;5004047;28;20040;-78
2024/01/06 06:24:57;;;;;;;10.38;5.90;;;;;;;;;;5023022;28;20387;-77
2024/01/06 06:27:23;;;;;;;11.98;5.55;;;;;;;;;;5006035;28;20040;-78
2024/01/06 06:29:48;;;;;;;8.65;5.10;;;;;;;;;;5014438;28;20093;-78
2024/01/06 06:32:13;;;;;;;9.85;5.50;;;;;;;;;;5018815;28;20030;-78
2024/01/06 06:34:38;;;;;;;10.88;5.55;;;;;;;;;;5018737;28;20041;-78
2024/01/06 06:37:04;;;;;;;12.90;6.60;;;;;;;;;;5004529;28;20025;-78
2024/01/06 06:39:31;;;;;;;11.35;6.03;;;;;;;;;;5020460;28;20045;-78
2024/01/06 06:41:56;;;;;;;10.68;5.43;;;;;;;;;;5019337;28;20149;-78
2024/01/06 06:44:21;;;;;;;11.80;5.70;;;;;;;;;;5017063;28;20033;-78
2024/01/06 06:46:47;;;;;;;9.80;5.28;;;;;;;;;;5015660;28;20037;-78
2024/01/06 06:49:12;;;;;;;11.18;5.85;;;;;;;;;;5016593;28;20402;-78
2024/01/06 06:51:44;;;;;;;11.13;5.47;;;;;;;;;;5020929;28;20111;-78
2024/01/06 06:54:09;;;;;;;10.95;6.80;;;;;;;;;;5007276;28;20021;-78
2024/01/06 06:56:34;;;;;;;9.98;5.18;;;;;;;;;;4997541;28;20045;-78
2024/01/06 06:59:00;;;;;;;11.27;5.45;;;;;;;;;;4997825;28;20390;-76
2024/01/06 07:01:25;;;;;;;11.40;5.68;;;;;;;;;;5019209;28;20029;-78
2024/01/06 07:03:50;;;;;;;10.48;5.13;;;;;;;;;;5001149;28;20033;-78
2024/01/06 07:06:15;;;;;;;10.57;5.25;;;;;;;;;;5004452;28;20025;-78
2024/01/06 07:08:41;;;;;;;9.63;5.57;;;;;;;;;;5017136;28;20495;-78
2024/01/06 07:11:07;;;;;;;9.68;5.57;;;;;;;;;;5015309;28;20025;-78
2024/01/06 07:13:32;;;;;;;11.82;5.18;;;;;;;;;;4999138;28;20045;-77
2024/01/06 07:15:57;;;;;;;10.68;5.90;;;;;;;;;;5000989;28;20034;-78
2024/01/06 07:18:24;;;;;;;10.80;6.10;;;;;;;;;;5021623;28;20048;-78
2024/01/06 07:20:50;;;;;;;8.25;5.05;;;;;;;;;;5019737;28;20026;-78
2024/01/06 07:23:15;;;;;;;10.20;6.13;;;;;;;;;;5006139;28;20707;-78
2024/01/06 07:25:40;;;;;;;11.55;6.20;;;;;;;;;;5015772;28;20018;-78
2024/01/06 07:28:07;;;;;;;9.02;5.50;;;;;;;;;;5019405;28;20026;-78
2024/01/06 07:30:33;;;;;;;11.65;6.40;;;;;;;;;;5000540;28;20601;-76
2024/01/06 07:32:58;;;;;;;11.27;6.10;;;;;;;;;;5021738;28;20153;-77
2024/01/06 07:35:23;;;;;;;11.10;6.38;;;;;;;;;;5023823;28;20052;-78
2024/01/06 07:37:48;;;;;;;10.55;6.13;;;;;;;;;;5014640;28;20025;-78
2024/01/06 07:40:16;;;;;;;12.57;7.15;;;;;;;;;;5017711;28;20037;-78
2024/01/06 07:42:41;;;;;;;11.52;6.50;;;;;;;;;;5017747;28;20056;-78
2024/01/06 07:45:07;;;;;;;12.52;7.13;;;;;;;;;;5023443;28;20026;-78
2024/01/06 07:47:32;;;;;;;14.82;8.82;;;;;;;;;;5007232;28;20934;-78
2024/01/06 07:49:57;;;;;;;12.85;8.23;;;;;;;;;;5020968;28;20034;-78
2024/01/06 07:52:22;;;;;;;13.07;7.05;;;;;;;;;;5001420;28;20034;-77
2024/01/06 07:54:48;;;;;;;13.98;7.90;;;;;;;;;;5019457;28;20034;-78
2024/01/06 07:57:13;;;;;;;14.63;9.18;;;;;;;;;;5023525;28;20026;-78
2024/01/06 07:59:38;;;;;;;15.02;8.02;;;;;;;;;;5024088;28;20073;-78
2024/01/06 08:02:04;;;;;;;17.65;7.93;;;;;;;;;;5025250;28;20104;-78
2024/01/06 08:04:29;;;;;;;14.13;8.50;;;;;;;;;;5004098;28;20044;-78
2024/01/06 08:06:54;;;;;;;15.05;8.65;;;;;;;;;;5018534;28;20037;-78
2024/01/06 08:09:20;;;;;;;13.43;8.23;;;;;;;;;;5019607;28;20037;-78
2024/01/06 08:11:47;;;;;;;16.55;9.50;;;;;;;;;;5009552;28;20037;-78
2024/01/06 08:14:12;;;;;;;15.00;9.18;;;;;;;;;;5022962;28;20029;-78
2024/01/06 08:16:38;;;;;;;17.67;9.05;;;;;;;;;;5023719;28;20032;-78
2024/01/06 08:19:03;;;;;;;15.38;8.65;;;;;;;;;;5020356;28;20112;-78
2024/01/06 08:21:28;;;;;;;17.65;10.27;;;;;;;;;;5019096;28;20037;-78
2024/01/06 08:23:53;;;;;;;17.67;9.70;;;;;;;;;;5009179;28;20033;-78
2024/01/06 08:26:18;;;;;;;14.43;8.25;;;;;;;;;;5019975;28;20022;-78
2024/01/06 08:28:44;;;;;;;14.77;8.68;;;;;;;;;;5004303;28;20030;-78
2024/01/06 08:31:09;;;;;;;14.48;8.48;;;;;;;;;;5025700;28;20708;-78
2024/01/06 08:33:34;;;;;;;14.75;8.68;;;;;;;;;;5017184;28;20461;-78
2024/01/06 08:35:59;;;;;;;23.50;11.38;;;;;;;;;;5018667;28;20022;-78
2024/01/06 08:38:25;;;;;;;15.43;9.38;;;;;;;;;;5022171;28;20041;-78
2024/01/06 08:40:50;;;;;;;16.20;9.45;;;;;;;;;;5024107;28;20610;-78
2024/01/06 08:43:15;;;;;;;17.92;9.88;;;;;;;;;;5022785;28;20039;-77
2024/01/06 08:45:41;;;;;;;17.15;10.05;;;;;;;;;;5023676;28;20060;-78
2024/01/06 08:48:06;;;;;;;19.35;10.95;;;;;;;;;;5009555;28;20026;-78
2024/01/06 08:50:31;;;;;;;20.25;11.70;;;;;;;;;;5024253;28;20049;-78
2024/01/06 08:52:56;;;;;;;18.40;10.93;;;;;;;;;;5019576;28;20033;-78
2024/01/06 08:55:22;;;;;;;18.75;10.82;;;;;;;;;;5024892;28;20025;-78
2024/01/06 08:57:47;;;;;;;19.00;11.43;;;;;;;;;;5022974;28;20045;-78
2024/01/06 09:00:12;;;;;;;23.63;13.13;;;;;;;;;;5010146;28;20030;-78
2024/01/06 09:02:38;;;;;;;21.52;12.07;;;;;;;;;;5017361;28;20026;-78
2024/01/06 09:05:04;;;;;;;19.10;11.30;;;;;;;;;;5003832;28;20030;-78
2024/01/06 09:07:30;;;;;;;21.52;13.13;;;;;;;;;;5020000;28;20099;-78
2024/01/06 09:09:55;;;;;;;19.05;10.63;;;;;;;;;;5024295;28;20033;-77
2024/01/06 09:12:20;;;;;;;26.67;14.02;;;;;;;;;;5023031;28;20079;-78
2024/01/06 09:14:46;;;;;;;21.55;12.05;;;;;;;;;;5010623;28;20441;-78
2024/01/06 09:17:11;;;;;;;21.30;12.15;;;;;;;;;;5020687;28;20510;-78
2024/01/06 09:19:36;;;;;;;21.15;11.70;;;;;;;;;;5017448;28;20033;-78
2024/01/06 09:22:01;;;;;;;24.17;12.43;;;;;;;;;;5022972;28;20033;-77
2024/01/06 09:24:27;;;;;;;22.65;13.70;;;;;;;;;;5023666;28;20032;-78
2024/01/06 09:26:52;;;;;;;25.80;14.23;;;;;;;;;;5023036;28;20026;-78
2024/01/06 09:29:17;;;;;;;24.95;13.20;;;;;;;;;;5001252;28;20626;-78
2024/01/06 09:31:43;;;;;;;25.98;14.13;;;;;;;;;;5018977;28;20035;-78
2024/01/06 09:34:12;;;;;;;26.17;14.10;;;;;;;;;;5020022;28;20100;-78
2024/01/06 09:36:37;;;;;;;25.77;13.50;;;;;;;;;;5010634;28;20379;-78
2024/01/06 09:39:04;;;;;;;27.20;15.10;;;;;;;;;;5014104;28;20037;-78
2024/01/06 09:41:29;;;;;;;23.20;13.40;;;;;;;;;;5023626;28;20025;-78
2024/01/06 09:43:54;;;;;;;26.05;13.65;;;;;;;;;;5016434;28;20100;-77
2024/01/06 09:46:26;;;;;;;28.00;14.70;;;;;;;;;;5018832;28;20033;-78
2024/01/06 09:48:56;;;;;;;26.63;14.52;;;;;;;;;;5016785;28;20076;-78
2024/01/06 09:51:21;;;;;;;31.33;14.80;;;;;;;;;;5018530;28;20139;-78
2024/01/06 09:53:58;;;;;;;25.80;14.05;;;;;;;;;;5004259;28;20060;-78
2024/01/06 09:56:24;;;;;;;27.48;14.82;;;;;;;;;;5017854;28;20022;-78
2024/01/06 09:58:49;;;;;;;26.98;15.00;;;;;;;;;;5015051;28;20029;-79
2024/01/06 10:01:15;;;;;;;27.48;15.77;;;;;;;;;;5009065;28;20056;-80
2024/01/06 10:03:40;;;;;;;31.55;16.67;;;;;;;;;;5019218;28;20520;-79
2024/01/06 10:06:06;;;;;;;29.05;15.27;;;;;;;;;;5019490;28;20022;-79
2024/01/06 10:08:34;;;;;;;31.33;16.17;;;;;;;;;;5021151;28;20045;-80
2024/01/06 10:11:00;;;;;;;28.13;16.15;;;;;;;;;;5022281;28;20036;-80
2024/01/06 10:13:25;;;;;;;30.05;15.40;;;;;;;;;;5021163;28;20030;-79
2024/01/06 10:15:51;;;;;;;29.83;16.30;;;;;;;;;;5021784;28;20068;-80
2024/01/06 10:18:16;;;;;;;29.08;16.02;;;;;;;;;;5002285;28;20032;-79
2024/01/06 10:20:43;;;;;;;31.15;16.55;;;;;;;;;;5022687;28;20026;-79
2024/01/06 10:23:08;;;;;;;34.25;18.20;;;;;;;;;;5019931;28;20029;-79
2024/01/06 10:25:34;;;;;;;35.20;18.58;;;;;;;;;;5000128;28;20133;-79
2024/01/06 10:28:00;;;;;;;35.13;19.20;;;;;;;;;;5015528;28;20029;-80
2024/01/06 10:30:25;;;;;;;38.05;20.77;;;;;;;;;;5022059;28;20033;-79
2024/01/06 10:32:51;;;;;;;38.33;19.60;;;;;;;;;;5020920;28;20383;-79
2024/01/06 10:35:17;;;;;;;40.15;21.55;;;;;;;;;;4999549;28;20052;-80
2024/01/06 10:37:42;;;;;;;39.17;19.35;;;;;;;;;;5019903;28;20152;-79
2024/01/06 10:40:08;;;;;;;43.33;21.92;;;;;;;;;;5017249;28;20697;-80
2024/01/06 10:42:33;;;;;;;37.10;19.38;;;;;;;;;;5019915;28;20030;-80
2024/01/06 10:45:00;;;;;;;37.25;21.33;;;;;;;;;;5023916;28;20029;-79
2024/01/06 10:47:26;;;;;;;39.17;21.42;;;;;;;;;;5009531;28;20030;-79
2024/01/06 10:49:54;;;;;;;41.15;22.20;;;;;;;;;;5009785;28;20524;-79
2024/01/06 10:52:19;;;;;;;40.10;21.10;;;;;;;;;;5019571;28;20034;-80
2024/01/06 10:54:49;;;;;;;41.92;23.55;;;;;;;;;;5003513;28;20084;-79
2024/01/06 10:57:15;;;;;;;42.65;21.27;;;;;;;;;;5021868;28;20445;-79
2024/01/06 10:59:41;;;;;;;45.67;22.50;;;;;;;;;;5021340;28;20041;-79
2024/01/06 11:02:06;;;;;;;44.95;23.45;;;;;;;;;;5021845;28;20044;-79
2024/01/06 11:04:32;;;;;;;48.42;23.98;;;;;;;;;;5019540;28;20030;-79
2024/01/06 11:06:57;;;;;;;48.88;24.65;;;;;;;;;;5004722;28;20041;-79
2024/01/06 11:09:31;;;;;;;48.95;23.60;;;;;;;;;;5020971;28;20037;-79
2024/01/06 11:11:57;;;;;;;44.88;24.70;;;;;;;;;;5021857;28;20082;-80
2024/01/06 11:14:26;;;;;;;48.47;24.65;;;;;;;;;;5007530;28;20073;-79
2024/01/06 11:16:52;;;;;;;44.72;23.48;;;;;;;;;;5015670;28;20053;-80
2024/01/06 11:19:42;;;;;;;47.47;24.33;;;;;;;;;;5022393;28;20033;-79
2024/01/06 11:22:31;;;;;;;42.53;22.23;;;;;;;;;;5015662;28;20033;-79
2024/01/06 11:24:57;;;;;;;42.03;21.38;;;;;;;;;;5012868;28;20037;-79
2024/01/06 11:27:29;;;;;;;44.85;23.35;;;;;;;;;;5021462;28;20033;-79
2024/01/06 11:29:56;;;;;;;48.55;24.80;;;;;;;;;;5021095;28;20037;-79
2024/01/06 11:32:24;;;;;;;48.97;24.75;;;;;;;;;;5025535;28;20112;-79
2024/01/06 11:34:54;;;;;;;50.50;24.40;;;;;;;;;;5019913;28;20026;-79
2024/01/06 11:37:23;;;;;;;50.20;25.70;;;;;;;;;;5019580;28;20022;-80
2024/01/06 11:39:49;;;;;;;43.47;23.27;;;;;;;;;;5021609;28;20030;-79
2024/01/06 11:42:15;;;;;;;46.60;23.65;;;;;;;;;;5022058;28;20659;-80
2024/01/06 11:44:42;;;;;;;43.58;22.80;;;;;;;;;;5005870;28;20057;-79
2024/01/06 11:47:08;;;;;;;44.33;23.00;;;;;;;;;;5016799;28;20025;-80
2024/01/06 11:49:33;;;;;;;46.97;23.58;;;;;;;;;;5008008;28;20203;-80
2024/01/06 11:51:59;;;;;;;45.72;24.60;;;;;;;;;;5020557;28;20045;-80
2024/01/06 11:54:24;;;;;;;40.08;21.38;;;;;;;;;;5022024;28;20021;-80
2024/01/06 11:56:49;;;;;;;43.58;21.50;;;;;;;;;;5021591;28;20085;-80
2024/01/06 11:59:14;;;;;;;48.67;25.02;;;;;;;;;;5025695;28;20548;-80
2024/01/06 12:01:40;;;;;;;41.97;22.75;;;;;;;;;;5019287;28;20109;-80
2024/01/06 12:04:05;;;;;;;47.63;23.15;;;;;;;;;;5016638;28;20077;-79
2024/01/06 12:06:31;;;;;;;56.88;27.27;;;;;;;;;;5022286;28;20112;-79
2024/01/06 12:09:06;;;;;;;54.90;26.70;;;;;;;;;;5023635;28;20469;-79
2024/01/06 12:11:31;;;;;;;52.13;27.10;;;;;;;;;;5019541;28;20068;-80
2024/01/06 12:13:56;;;;;;;53.70;27.55;;;;;;;;;;5021929;28;20053;-80
2024/01/06 12:16:22;;;;;;;57.67;28.30;;;;;;;;;;5019185;28;20110;-80
2024/01/06 12:18:47;;;;;;;53.50;26.73;;;;;;;;;;5016015;28;20026;-80
2024/01/06 12:21:12;;;;;;;51.72;25.60;;;;;;;;;;5021711;28;20030;-80
2024/01/06 12:23:38;;;;;;;50.47;26.67;;;;;;;;;;5020306;28;20069;-80
2024/01/06 12:26:03;;;;;;;51.15;25.20;;;;;;;;;;5025139;28;20025;-80
2024/01/06 12:28:29;;;;;;;56.47;27.80;;;;;;;;;;5021619;28;20030;-79
2024/01/06 12:30:54;;;;;;;52.30;26.67;;;;;;;;;;5018564;28;20133;-80
2024/01/06 12:33:19;;;;;;;56.40;27.95;;;;;;;;;;5018348;28;20030;-79
2024/01/06 12:35:45;;;;;;;61.58;28.83;;;;;;;;;;5014750;28;20053;-79
2024/01/06 12:38:10;;;;;;;58.67;28.08;;;;;;;;;;5022967;28;20120;-80
2024/01/06 12:40:37;;;;;;;54.25;27.75;;;;;;;;;;5022264;28;20037;-80
2024/01/06 12:43:02;;;;;;;64.38;29.98;;;;;;;;;;5018144;28;20493;-80
2024/01/06 12:45:28;;;;;;;62.28;28.83;;;;;;;;;;5017094;28;20041;-79
2024/01/06 12:47:54;;;;;;;61.25;29.15;;;;;;;;;;5016842;28;20124;-79
2024/01/06 12:50:19;;;;;;;61.63;28.42;;;;;;;;;;5009100;28;20033;-80
2024/01/06 12:52:45;;;;;;;61.58;29.00;;;;;;;;;;5019819;28;20100;-79
2024/01/06 12:55:11;;;;;;;58.10;27.75;;;;;;;;;;5022147;28;20490;-79
2024/01/06 12:57:36;;;;;;;58.47;28.63;;;;;;;;;;5000935;28;20100;-83
2024/01/06 13:00:02;;;;;;;62.65;29.48;;;;;;;;;;5022183;28;20026;-80
2024/01/06 13:02:27;;;;;;;63.63;30.13;;;;;;;;;;5007944;28;20521;-80
2024/01/06 13:04:52;;;;;;;59.00;29.33;;;;;;;;;;5018881;28;20113;-80
2024/01/06 13:07:17;;;;;;;59.92;28.77;;;;;;;;;;5023311;28;20056;-79
2024/01/06 13:09:44;;;;;;;63.00;31.67;;;;;;;;;;5011068;28;20041;-79
2024/01/06 13:12:09;;;;;;;57.13;26.95;;;;;;;;;;5018050;28;20069;-79
2024/01/06 13:14:35;;;;;;;55.10;28.25;;;;;;;;;;5017038;28;20061;-79
2024/01/06 13:17:00;;;;;;;65.22;29.17;;;;;;;;;;5017542;28;20033;-79
2024/01/06 13:19:26;;;;;;;62.05;27.70;;;;;;;;;;5022089;28;20033;-79
2024/01/06 13:21:52;;;;;;;57.15;26.83;;;;;;;;;;5017657;28;20482;-79
2024/01/06 13:24:18;;;;;;;57.03;28.20;;;;;;;;;;5003297;28;20038;-79
2024/01/06 13:26:43;;;;;;;60.17;28.40;;;;;;;;;;5018216;28;20450;-80
2024/01/06 13:29:08;;;;;;;61.10;29.88;;;;;;;;;;5019561;28;20025;-80
2024/01/06 13:31:33;;;;;;;68.47;30.65;;;;;;;;;;5017246;28;20034;-79
2024/01/06 13:33:59;;;;;;;70.65;30.25;;;;;;;;;;5000279;28;20034;-79
2024/01/06 13:36:24;;;;;;;67.57;29.13;;;;;;;;;;5023534;28;20057;-79
2024/01/06 13:38:49;;;;;;;65.70;30.48;;;;;;;;;;5017938;28;20018;-79
2024/01/06 13:41:15;;;;;;;68.88;30.65;;;;;;;;;;5020289;28;20034;-79
2024/01/06 13:43:40;;;;;;;71.57;31.05;;;;;;;;;;5016567;28;20026;-79
2024/01/06 13:46:05;;;;;;;71.05;30.45;;;;;;;;;;4993083;28;20479;-79
2024/01/06 13:48:30;;;;;;;77.47;33.97;;;;;;;;;;5009580;28;20033;-79
2024/01/06 13:50:57;;;;;;;78.60;33.20;;;;;;;;;;5021157;28;20482;-79
2024/01/06 13:53:22;;;;;;;64.93;31.20;;;;;;;;;;5006262;28;20094;-79
2024/01/06 13:55:47;;;;;;;81.10;33.58;;;;;;;;;;5015442;28;20018;-79
2024/01/06 13:58:12;;;;;;;77.15;33.60;;;;;;;;;;5017541;28;20100;-80
2024/01/06 14:00:38;;;;;;;79.55;35.38;;;;;;;;;;5019226;28;20057;-79
2024/01/06 14:03:04;;;;;;;66.10;30.05;;;;;;;;;;5020177;28;20116;-79
2024/01/06 14:05:29;;;;;;;70.95;31.45;;;;;;;;;;5001298;28;20029;-78
2024/01/06 14:07:54;;;;;;;72.78;31.55;;;;;;;;;;5015370;28;20083;-80
2024/01/06 14:10:19;;;;;;;69.22;31.00;;;;;;;;;;5021666;28;20037;-79
2024/01/06 14:12:45;;;;;;;65.38;29.80;;;;;;;;;;5018125;28;20048;-79
2024/01/06 14:15:10;;;;;;;69.32;28.65;;;;;;;;;;5019817;28;20026;-79
2024/01/06 14:17:35;;;;;;;63.10;27.92;;;;;;;;;;5020637;28;20025;-79